Decoded Metar for VOBL (Bengaluru in INDIA) (IATA:N/A) | Meteo·Mobile Aviation Weather
aviador You're here:

VOBL Decoded Metar

Bengaluru in INDIA
Report Time2018-09-19 22:00:00
UTC Time2018-09-19 22:24:12
Flight Rules mvfr MVFR
Wind270° at 08 kt
W.Decomp.*RWY 27: 8.0 kt HW 0.1 kt RCW
W.Rank270° ranks 2
Current wind is below 270° avg. (8.8)
Visibility6000 m
Phenomena:N/A
Clouds:Scattered 012 Hf
CeilingNone
Temp20°C (ISA +11)
Dew Point20°C (100% RH)
QNH1009 hPa
Density Alt4,738 ft
Elevation3,002 ft
Report Wrong Elevation
Raw Report
METAR VOBL 192200Z 27008KT 6000 SCT012 20/20 Q1009 NOSIG=

Extra information for VOBL:More info

Metar Taf Metar & Taf Last 4 Metars F.Rules Stats Wind Profile Meteogram Temp Stats Airport Information Weather charts Add Link Nearby VenuesMetar ALERT Operation Metar Decoded Social comments